• Join FlightAware (Why Join?)
  • Login
  • US Flag 
05:53AM EST


 

Airport Tracker/Info


-or-


 

Live Flight TrackerFlight Track Log ✈ SWA2147 ✈ 03-May-2013 ✈ KMDW - KMHT

Flight Track Log - Related Links

Times and Time Zones

All times are in EDT time to prevent confusion due to time zone crossing. See the SWA2147 flight status page for this flight to view local times or setup timezone preferences in your user account.

Time Position Orientation Groundspeed Altitude Reporting Facility
EDT Latitude Longitude Course Direction KTS MPH feet Rate Location/Type
10:14PM 41.8000 -87.7667 66° East 165 190 1,900  Level Chicago TRACON
10:15PM 41.8167 -87.7167 66° East 201 231 3,400 960 Climbing Chicago TRACON
10:17PM 41.8350 -87.5436 82° East 242 278 4,900 900 Climbing Chicago Center
10:18PM 41.8450 -87.4506 82° East 251 289 6,300 2,400 Climbing Chicago Center
10:19PM 41.8564 -87.3525 81° East 264 304 9,900 2,700 Climbing Chicago Center
10:20PM 41.8858 -87.2161 74° East 330 380 11,900 2,220 Climbing Chicago Center
10:21PM 41.9181 -87.0900 71° East 358 412 14,500 2,820 Climbing Chicago Center
10:22PM 41.9344 -86.9553 81° East 365 420 17,700 2,880 Climbing Chicago Center
10:23PM 41.9506 -86.8178 81° East 372 428 20,400 1,860 Climbing Chicago Center
10:24PM 41.9678 -86.6783 81° East 378 435 21,600 1,500 Climbing Chicago Center
10:26PM 42.0036 -86.3672 81° East 411 473 25,100 1,680 Climbing Chicago Center
10:27PM 42.0217 -86.2100 81° East 424 488 26,900 1,680 Climbing Chicago Center
10:28PM 42.0400 -86.0522 81° East 426 490 28,600 1,260 Climbing Chicago Center
10:29PM 42.0558 -85.9056 82° East 427 491 29,500 1,080 Climbing Chicago Center
10:30PM 42.0739 -85.7422 81° East 441 507 30,900 1,500 Climbing Chicago Center
10:31PM 42.0961 -85.5444 81° East 448 516 32,600 1,020 Climbing Chicago Center
10:32PM 42.1136 -85.3783 82° East 451 519 33,000 240 Climbing Chicago Center
10:33PM 42.1261 -85.2900 79° East 441 507 33,000 240 Level Cleveland Center
10:34PM 42.1431 -85.1261 82° East 441 507 33,400 480 Climbing Cleveland Center
10:35PM 42.1808 -84.9606 73° East 441 507 34,000 780 Climbing Cleveland Center
10:36PM 42.2428 -84.8133 60° Northeast 441 507 35,000 480 Climbing Cleveland Center
10:37PM 42.3003 -84.6628 63° Northeast 441 507 35,000  Level Cleveland Center
10:38PM 42.3328 -84.5103 74° East 436 502 35,000  Level Cleveland Center
10:39PM 42.3464 -84.3453 84° East 426 490 35,000  Level Cleveland Center
10:40PM 42.3581 -84.1800 84° East 432 497 35,000  Level Cleveland Center
10:41PM 42.3733 -84.0178 83° East 437 503 35,000  Level Cleveland Center
10:42PM 42.3867 -83.8556 84° East 442 509 35,000  Level Cleveland Center
10:43PM 42.3994 -83.6875 84° East 442 509 35,000  Level Cleveland Center
10:44PM 42.4097 -83.5361 85° East 442 509 35,000  Level Cleveland Center
10:45PM 42.4222 -83.3706 84° East 447 514 35,000  Level Cleveland Center
10:46PM 42.4369 -83.1856 84° East 442 509 35,000  Level Cleveland Center
10:47PM 42.4489 -83.0172 84° East 442 509 35,000  Level Cleveland Center
10:48PM 42.4608 -82.8517 84° East 442 509 35,000  Level Cleveland Center
10:49PM 42.4722 -82.6831 85° East 442 509 35,000  Level Cleveland Center
10:50PM 42.4836 -82.5147 85° East 442 509 35,000  Level Cleveland Center
10:51PM 42.4947 -82.3458 85° East 442 509 35,000  Level Cleveland Center
10:52PM 42.5075 -82.1772 84° East 442 509 35,000  Level Cleveland Center
10:53PM 42.5161 -82.0058 86° East 442 509 35,000  Level Cleveland Center
10:54PM 42.5283 -81.8342 84° East 442 509 35,000  Level Cleveland Center
10:55PM 42.5406 -81.6681 84° East 442 509 35,000  Level Cleveland Center
10:56PM 42.5503 -81.5161 85° East 448 516 35,000  Level Cleveland Center
10:57PM 42.5597 -81.3469 86° East 448 516 35,000  Level Cleveland Center
10:58PM 42.5711 -81.1725 85° East 456 525 35,000  Level Cleveland Center
10:59PM 42.5803 -80.9978 86° East 461 531 35,000  Level Cleveland Center
11:00PM 42.5892 -80.8314 86° East 456 525 35,000  Level Cleveland Center
11:01PM 42.5997 -80.6453 86° East 456 525 35,000  Level Cleveland Center
11:02PM 42.6081 -80.4703 86° East 461 531 35,000  Level Cleveland Center
11:03PM 42.6119 -80.2983 88° East 456 525 35,000  Level Cleveland Center
11:04PM 42.6239 -80.1317 84° East 456 525 35,000  Level Cleveland Center
11:05PM 42.6358 -79.9622 84° East 462 532 35,000  Level Cleveland Center
11:06PM 42.6431 -79.7928 87° East 451 519 35,000  Level Cleveland Center
11:07PM 42.6500 -79.6261 87° East 444 511 35,000  Level Cleveland Center
11:08PM 42.6547 -79.4597 88° East 444 511 35,000  Level Cleveland Center
11:09PM 42.6614 -79.2931 87° East 444 511 35,000  Level Cleveland Center
11:10PM 42.6700 -79.1261 86° East 444 511 35,000  Level Cleveland Center
11:11PM 42.6739 -78.9622 88° East 439 505 35,000  Level Cleveland Center
11:12PM 42.6797 -78.7956 87° East 439 505 35,000  Level Cleveland Center
11:13PM 42.6875 -78.6314 86° East 439 505 35,000  Level Cleveland Center
11:14PM 42.6908 -78.4647 88° East 439 505 35,000  Level Cleveland Center
11:15PM 42.6961 -78.2978 87° East 439 505 35,000  Level Cleveland Center
11:16PM 42.7011 -78.1336 88° East 439 505 35,000  Level Cleveland Center
11:17PM 42.7078 -77.9667 87° East 439 505 35,000  Level Cleveland Center
11:18PM 42.7122 -77.8025 88° East 439 505 35,000  Level Cleveland Center
11:19PM 42.7164 -77.6328 88° East 445 512 35,000  Level Cleveland Center
11:21PM 42.7206 -77.3275 89° East 452 520 35,000  Level Boston Center
11:22PM 42.7256 -77.1611 88° East 447 514 35,000  Level Boston Center
11:23PM 42.7281 -76.9944 89° East 442 509 35,000  Level Boston Center
11:24PM 42.7319 -76.7908 88° East 437 503 35,000  Level Boston Center
11:25PM 42.7361 -76.6244 88° East 437 503 35,000  Level Boston Center
11:26PM 42.7378 -76.4633 89° East 437 503 35,000  Level Boston Center
11:27PM 42.7394 -76.2936 89° East 437 503 35,000  Level Boston Center
11:28PM 42.7428 -76.1328 88° East 437 503 35,000  Level Boston Center
11:29PM 42.7436 -75.9686 90° East 437 503 35,000  Level Boston Center
11:30PM 42.7467 -75.8047 88° East 437 503 35,000  Level Boston Center
11:31PM 42.7475 -75.6325 90° East 443 510 35,000  Level Boston Center
11:32PM 42.7500 -75.4628 89° East 443 510 35,000  Level Boston Center
11:33PM 42.7500 -75.2958 90° East 443 510 35,000 -420 Level Boston Center
11:34PM 42.7500 -75.1264 90° East 443 510 34,200 -1,440 Descending Boston Center
11:35PM 42.7517 -74.9681 89° East 432 497 32,200 -1,920 Descending Boston Center
11:36PM 42.7508 -74.8097 90° East 420 483 30,400 -1,620 Descending Boston Center
11:37PM 42.7500 -74.6400 90° East 414 476 29,000 -720 Descending Boston Center
11:38PM 42.7508 -74.4844 90° East 414 476 29,000  Level Boston Center
11:39PM 42.7494 -74.3317 91° East 403 464 29,000  Level Boston Center
11:40PM 42.7497 -74.1789 90° East 403 464 29,000  Level Boston Center
11:41PM 42.7458 -74.0233 92° East 403 464 29,000 -120 Level Boston Center
11:42PM 42.7478 -73.8736 89° East 403 464 28,800 -1,080 Descending Boston Center
11:43PM 42.7494 -73.7236 89° East 403 464 26,900 -1,920 Descending Boston Center
11:44PM 42.7572 -73.5881 85° East 379 436 25,000 -1,500 Descending Boston Center
11:45PM 42.7628 -73.4469 87° East 367 422 24,000 -540 Descending Boston Center
11:46PM 42.7661 -73.3056 88° East 367 422 24,000 -360 Level Boston Center
11:47PM 42.7731 -73.1783 86° East 367 422 23,300 -900 Descending Boston Center
11:48PM 42.7803 -73.0456 86° East 362 417 22,200 -1,140 Descending Boston Center
11:49PM 42.7831 -72.8956 89° East 363 418 21,100 -1,140 Descending Boston Center
11:50PM 42.7897 -72.7711 86° East 347 399 20,000 -1,260 Descending Boston Center
11:51PM 42.7961 -72.6664 85° East 315 362 18,600 -1,320 Descending Boston Center
11:52PM 42.8006 -72.5475 87° East 307 353 17,400 -1,500 Descending Boston Center
11:53PM 42.8047 -72.4317 87° East 307 353 15,700 -1,680 Descending Boston Center
11:54PM 42.8089 -72.3211 87° East 307 353 14,100 -1,620 Descending Boston Center
11:55PM 42.8128 -72.1939 88° East 307 353 12,200 -1,560 Descending Boston Center
11:56PM 42.8228 -72.0750 83° East 294 338 10,700 -1,200 Descending Boston Center
11:57PM 42.8581 -71.9756 64° Northeast 267 307 9,800 -1,080 Descending Boston Center
11:58PM 42.8828 -71.9017 65° Northeast 246 283 8,600 -1,500 Descending Boston Center
11:59PM 42.9133 -71.8164 64° Northeast 229 264 6,900 -1,740 Descending Boston Center
12:00AM 42.9361 -71.7453 66° East 224 258 5,200 -1,740 Descending Boston Center
12:01AM 42.9647 -71.6656 64° Northeast 212 244 3,500 -1,260 Descending Boston Center
12:02AM 42.9789 -71.6028 73° East 205 236 2,700 -900 Descending Boston Center
12:03AM 42.9950 -71.5317 73° East 180 207 1,700 -540 Descending Boston Center
12:04AM 43.0028 -71.4806 78° East 164 189 1,700 -480 Level Boston Center
12:05AM 42.9631 -71.4528 153° Southeast 131 151 800 3,600 Descending Boston Center
12:06AM 42.9358 -71.4306 149° Southeast 137 158 9,000 4,080 Climbing Boston Center
12:07AM 42.9042 -71.4028 147° Southeast 137 158 9,000  Level Boston Center
12:08AM 42.8728 -71.3750 147° Southeast 137 158 9,000  Level Boston Center
12:09AM 42.8411 -71.3472 147° Southeast 137 158 9,000  Level Boston Center
12:11AM 42.9167 -71.4333 316° Northwest  Level FlightAware Approximate
12:18AM 42.9328 -71.4358 316° Northwest  Level Estimated
12:19AM 42.9328 -71.4358 316° Northwest  Level Estimated
12:20AM 42.9328 -71.4358 316° Northwest  Level Estimated
12:21AM 42.9328 -71.4358 316° Northwest  Level Estimated
12:22AM 42.9328 -71.4358 316° Northwest  Level Estimated
12:23AM 42.9328 -71.4358 316° Northwest  Level Estimated